M/T Vemaoil Xi — 9HWD7 — position and weather

sailwx.info

Track history (hours):
 
Tides and Currents Weather Stations Pressure Air Temp Water Temp Dewpoint Dewpoint Depression Visibility Wind Speed Wind Dir Waves Ship Positions

M/T Vemaoil Xi

Last reported at 2015-Jan-17 22:32 UTC. Time now 2015-Jan-28 18:12 UTC.
Position N 35°51' E 014°39'.
Warning: this ship's position is 10 days out of date.

Length 105 m; draft 7 m.

Type: Tanker. MMSI: 215631000.

Date/timePositionNaut miles runAvg speedWind from/ knotsBaromVisibWave heightAir tempDewpointWater temp
2015-Jan-17 22:32N 35°51' E 014°39'0 0.0
2015-Jan-17 04:14N 35°51' E 014°39'0 0.0
2015-Jan-17 03:32N 35°51' E 014°39'1 0.8
2015-Jan-17 02:34N 35°50' E 014°38'4 0.2
2015-Jan-16 08:30N 35°49' E 014°33'1 1.3
2015-Jan-16 07:31N 35°49' E 014°35'0 0.0
2015-Jan-16 06:28N 35°49' E 014°35'0 0.0
2015-Jan-16 05:28N 35°49' E 014°35'0 0.0
2015-Jan-16 04:31N 35°49' E 014°35'0 0.0
2015-Jan-16 03:31N 35°49' E 014°35'0 0.0
2015-Jan-16 02:31N 35°49' E 014°35'0 0.1
2015-Jan-16 01:25N 35°49' E 014°35'2 1.0
2015-Jan-15 23:16N 35°49' E 014°32'0 0.0
2015-Jan-15 22:19N 35°49' E 014°32'0 0.0
2015-Jan-15 21:31N 35°49' E 014°32'0 0.2
2015-Jan-15 20:30N 35°49' E 014°32'3 1.3
2015-Jan-15 18:29N 35°50' E 014°35'0 0.0
2015-Jan-15 04:08N 35°50' E 014°35'0 0.0
2015-Jan-15 03:32N 35°50' E 014°36'0 0.0
2015-Jan-15 02:32N 35°50' E 014°36'0 0.0
2015-Jan-15 01:11N 35°50' E 014°36'0 0.0
2015-Jan-15 00:32N 35°50' E 014°36'0 0.0
2015-Jan-14 23:32N 35°50' E 014°36'0 0.0
2015-Jan-14 22:29N 35°50' E 014°36'0 0.0
2015-Jan-14 21:32N 35°50' E 014°36'0 0.0
2015-Jan-14 19:23N 35°50' E 014°36'0 0.0
2015-Jan-14 17:11N 35°50' E 014°36'0 0.0
2015-Jan-14 16:20N 35°50' E 014°36'0 0.0
2015-Jan-14 15:23N 35°50' E 014°36'0 0.0
2015-Jan-14 13:11N 35°50' E 014°36'0 0.0
2015-Jan-14 12:29N 35°50' E 014°36'0 0.0
2015-Jan-14 11:32N 35°50' E 014°36'0 0.0
2015-Jan-14 10:32N 35°50' E 014°36'0 0.0
2015-Jan-14 09:08N 35°50' E 014°36'0 0.1
2015-Jan-14 08:29N 35°50' E 014°35'0 0.0
2015-Jan-14 07:32N 35°50' E 014°35'0 0.0
2015-Jan-14 06:32N 35°50' E 014°35'0 0.0
2015-Jan-14 05:32N 35°50' E 014°35'0 0.0
2015-Jan-14 04:32N 35°50' E 014°35'0 0.0
2015-Jan-14 03:29N 35°50' E 014°35'0 0.0
2015-Jan-14 02:29N 35°50' E 014°35'0 0.0
2015-Jan-14 01:29N 35°50' E 014°35'0 0.0
2015-Jan-14 00:32N 35°50' E 014°35'0 0.0
2015-Jan-13 23:29N 35°50' E 014°35'0 0.0
2015-Jan-13 22:23N 35°50' E 014°35'0 0.0
2015-Jan-13 21:32N 35°50' E 014°35'2 1.9
2015-Jan-13 20:21N 35°50' E 014°38'6 6.9
2015-Jan-13 19:30N 35°53' E 014°45'8 0.2
2015-Jan-11 17:27N 35°50' E 014°36'0 0.0
2015-Jan-11 16:18N 35°50' E 014°36'0 0.0
2015-Jan-11 15:27N 35°50' E 014°36'0 0.0
2015-Jan-11 14:09N 35°50' E 014°36'0 0.0
2015-Jan-11 13:03N 35°50' E 014°36'  
Track history (hours):
 
Tides and Currents Weather Stations Pressure Air Temp Water Temp Dewpoint Dewpoint Depression Visibility Wind Speed Wind Dir Waves Ship Positions

M/T Vemaoil Xi

Last reported at 2015-Jan-17 22:32 UTC. Time now 2015-Jan-28 18:12 UTC.
Position N 35°51' E 014°39'.
Warning: this ship's position is 10 days out of date.

Length 105 m; draft 7 m.

Type: Tanker. MMSI: 215631000.

Date/timePositionNaut miles runAvg speedWind from/ knotsBaromVisibWave heightAir tempDewpointWater temp
2015-Jan-17 22:32N 35°51' E 014°39'0 0.0
2015-Jan-17 04:14N 35°51' E 014°39'0 0.0
2015-Jan-17 03:32N 35°51' E 014°39'1 0.8
2015-Jan-17 02:34N 35°50' E 014°38'4 0.2
2015-Jan-16 08:30N 35°49' E 014°33'1 1.3
2015-Jan-16 07:31N 35°49' E 014°35'0 0.0
2015-Jan-16 06:28N 35°49' E 014°35'0 0.0
2015-Jan-16 05:28N 35°49' E 014°35'0 0.0
2015-Jan-16 04:31N 35°49' E 014°35'0 0.0
2015-Jan-16 03:31N 35°49' E 014°35'0 0.0
2015-Jan-16 02:31N 35°49' E 014°35'0 0.1
2015-Jan-16 01:25N 35°49' E 014°35'2 1.0
2015-Jan-15 23:16N 35°49' E 014°32'0 0.0
2015-Jan-15 22:19N 35°49' E 014°32'0 0.0
2015-Jan-15 21:31N 35°49' E 014°32'0 0.2
2015-Jan-15 20:30N 35°49' E 014°32'3 1.3
2015-Jan-15 18:29N 35°50' E 014°35'0 0.0
2015-Jan-15 04:08N 35°50' E 014°35'0 0.0
2015-Jan-15 03:32N 35°50' E 014°36'0 0.0
2015-Jan-15 02:32N 35°50' E 014°36'0 0.0
2015-Jan-15 01:11N 35°50' E 014°36'0 0.0
2015-Jan-15 00:32N 35°50' E 014°36'0 0.0
2015-Jan-14 23:32N 35°50' E 014°36'0 0.0
2015-Jan-14 22:29N 35°50' E 014°36'0 0.0
2015-Jan-14 21:32N 35°50' E 014°36'0 0.0
2015-Jan-14 19:23N 35°50' E 014°36'0 0.0
2015-Jan-14 17:11N 35°50' E 014°36'0 0.0
2015-Jan-14 16:20N 35°50' E 014°36'0 0.0
2015-Jan-14 15:23N 35°50' E 014°36'0 0.0
2015-Jan-14 13:11N 35°50' E 014°36'0 0.0
2015-Jan-14 12:29N 35°50' E 014°36'0 0.0
2015-Jan-14 11:32N 35°50' E 014°36'0 0.0
2015-Jan-14 10:32N 35°50' E 014°36'0 0.0
2015-Jan-14 09:08N 35°50' E 014°36'0 0.1
2015-Jan-14 08:29N 35°50' E 014°35'0 0.0
2015-Jan-14 07:32N 35°50' E 014°35'0 0.0
2015-Jan-14 06:32N 35°50' E 014°35'0 0.0
2015-Jan-14 05:32N 35°50' E 014°35'0 0.0
2015-Jan-14 04:32N 35°50' E 014°35'0 0.0
2015-Jan-14 03:29N 35°50' E 014°35'0 0.0
2015-Jan-14 02:29N 35°50' E 014°35'0 0.0
2015-Jan-14 01:29N 35°50' E 014°35'0 0.0
2015-Jan-14 00:32N 35°50' E 014°35'0 0.0
2015-Jan-13 23:29N 35°50' E 014°35'0 0.0
2015-Jan-13 22:23N 35°50' E 014°35'0 0.0
2015-Jan-13 21:32N 35°50' E 014°35'2 1.9
2015-Jan-13 20:21N 35°50' E 014°38'6 6.9
2015-Jan-13 19:30N 35°53' E 014°45'8 0.2
2015-Jan-11 17:27N 35°50' E 014°36'0 0.0
2015-Jan-11 16:18N 35°50' E 014°36'0 0.0
2015-Jan-11 15:27N 35°50' E 014°36'0 0.0
2015-Jan-11 14:09N 35°50' E 014°36'0 0.0
2015-Jan-11 13:03N 35°50' E 014°36'  

Dump ship's entire track history